Terminal Aerodrome Forecast
Issued by NWS Billings, MT

Current Version | Previous Version | Text Only | Print | Product List | Glossary On
Versions: 1 2 3 4 5 6 7 8 9 10 11 12 13 14 15 16 17 18 19
000
FTUS45 KBYZ 221736
TAFBIL
TAF
KBIL 221736Z 2218/2318 33011KT P6SM VCSH SCT020 BKN040
      TEMPO 2218/2220 3SM -SN BR BKN020 OVC030
     FM222000 05008KT 2SM -SHRASN BKN025 OVC030
     FM230200 03008KT P6SM VCSH OVC025=

USA.gov is the U.S. government's official web portal to all federal, state and local government web resources and services.